Latest Weather Observations for Perth Airport

IDW60801

Issued at 7:33 pm WST Monday 21 August 2017 (issued every 30 minutes, with the page automatically refreshed every 10 minutes)

About weather observations | Map of weather stations | Latest weather observations for WA | Other Formats
Station Details ID: 009021 Name: PERTH AIRPORT Lat: -31.93 Lon: 115.98 Height: 15.4 m
Data from the previous 72 hours. | See also: Recent months at Perth Airport
Date/Time
WST
Temp
°C
App
Temp
°C
Dew
Point
°C
Rel
Hum
%
Delta-T
°C
Wind Press
QNH
hPa
Press
MSL
hPa
Rain since
9am
mm
Dir  Spd
km/h
Gust
km/h
Spd
kts
Gust
kts
21/07:00pm 14.2 13.3 10.6 79 1.9 SW 6 7 3 4 1020.7 1020.7 0.4
21/06:30pm 14.3 12.7 10.1 76 2.2 WSW 9 13 5 7 1020.5 1020.5 0.4
21/06:00pm 14.4 12.7 10.0 75 2.3 WSW 9 15 5 8 1020.2 1020.2 0.4
21/05:30pm 14.5 12.2 10.3 76 2.2 SW 13 17 7 9 1020.1 1020.1 0.4
21/05:00pm 15.3 12.6 10.3 72 2.6 WSW 15 19 8 10 1020.1 1020.1 0.4
21/04:30pm 15.3 11.5 9.9 70 2.8 SW 20 26 11 14 1019.9 1019.9 0.4
21/04:00pm 15.4 12.1 9.6 68 3.0 WSW 17 22 9 12 1019.8 1019.8 0.4
21/03:30pm 15.8 13.6 10.7 71 2.7 WSW 13 17 7 9 1019.8 1019.8 0.4
21/03:00pm 15.6 13.7 10.5 71 2.7 WNW 11 15 6 8 1019.8 1019.8 0.4
21/02:30pm 15.2 12.8 11.5 78 2.0 W 15 20 8 11 1020.1 1020.1 0.4
21/02:00pm 14.4 13.1 12.4 88 1.1 WSW 11 17 6 9 1020.3 1020.3 0.4
21/01:40pm 13.9 11.5 12.6 92 0.7 WNW 17 22 9 12 1020.6 1020.6 0.0
21/01:30pm 14.6 12.0 12.0 84 1.4 WNW 17 24 9 13 1020.6 1020.6 0.0
21/01:00pm 14.8 12.2 10.6 76 2.2 WNW 15 20 8 11 1021.2 1021.2 0.0
21/12:53pm 15.2 11.5 10.2 72 2.6 WNW 20 28 11 15 1021.3 1021.3 0.0
21/12:30pm 16.0 12.6 9.0 63 3.6 NW 17 33 9 18 1021.6 1021.6 0.0
21/12:00pm 15.6 13.1 8.2 61 3.7 WNW 11 19 6 10 1022.1 1022.1 0.0
21/11:30am 15.6 13.8 8.0 60 3.8 SSW 7 11 4 6 1022.5 1022.5 0.0
21/11:00am 15.6 14.0 8.0 60 3.8 WNW 6 7 3 4 1022.6 1022.6 0.0
21/10:30am 14.6 13.0 8.0 64 3.3 NE 6 7 3 4 1022.9 1022.9 0.0
21/10:00am 13.8 11.9 7.7 66 3.0 NNE 7 9 4 5 1023.0 1023.0 0.0
21/09:30am 13.0 10.8 7.7 70 2.6 NE 9 11 5 6 1023.2 1023.2 0.0
21/09:00am 12.2 10.0 7.9 75 2.1 N 9 11 5 6 1023.2 1023.2 0.2
21/08:30am 11.2 9.0 7.9 80 1.6 NNE 9 13 5 7 1023.1 1023.1 0.2
21/08:00am 10.4 8.2 7.9 84 1.2 N 9 13 5 7 1023.1 1023.1 0.2
21/07:30am 9.7 7.4 7.6 87 1.0 NNE 9 13 5 7 1022.8 1022.8 0.2
21/07:00am 9.3 6.9 7.2 87 1.0 NNE 9 13 5 7 1022.7 1022.7 0.2
21/06:30am 9.2 6.8 7.1 87 1.0 NNE 9 11 5 6 1022.5 1022.5 0.2
21/06:00am 9.1 5.9 7.0 87 1.0 NE 13 15 7 8 1022.4 1022.4 0.2
21/05:30am 9.0 7.0 7.1 88 0.9 NE 7 11 4 6 1022.4 1022.4 0.2
21/05:00am 8.8 6.3 6.6 86 1.0 N 9 11 5 6 1022.5 1022.5 0.2
21/04:30am 8.4 5.9 6.7 89 0.8 N 9 11 5 6 1022.3 1022.3 0.2
21/04:00am 9.0 6.5 6.6 85 1.1 N 9 13 5 7 1022.4 1022.4 0.2
21/03:30am 9.2 6.7 6.6 84 1.2 NNE 9 11 5 6 1022.3 1022.3 0.2
21/03:00am 8.8 6.3 6.4 85 1.1 ENE 9 13 5 7 1022.6 1022.6 0.2
21/02:30am 8.8 6.3 6.6 86 1.0 N 9 11 5 6 1022.9 1022.9 0.2
21/02:00am 8.5 5.9 6.3 86 1.0 NE 9 13 5 7 1022.9 1022.9 0.2
21/01:30am 7.9 5.3 6.1 88 0.8 NE 9 11 5 6 1023.0 1023.0 0.2
21/01:00am 6.4 3.7 5.5 94 0.4 NE 9 11 5 6 1023.3 1023.3 0.2
21/12:30am 6.0 3.2 5.3 95 0.3 NNE 9 9 5 5 1023.5 1023.5 0.2
21/12:00am 6.3 3.6 5.6 95 0.3 NE 9 11 5 6 1023.4 1023.4 0.2
 
Date/Time
WST
Temp
°C
App
Temp
°C
Dew
Point
°C
Rel
Hum
%
Delta-T
°C
Wind Press
QNH
hPa
Press
MSL
hPa
Rain since
9am
mm
Dir  Spd
km/h
Gust
km/h
Spd
kts
Gust
kts
20/11:30pm 6.9 5.2 5.8 93 0.5 NNE 4 7 2 4 1023.7 1023.7 0.2
20/11:00pm 6.3 3.2 5.4 94 0.4 NNE 11 13 6 7 1023.6 1023.6 0.2
20/10:30pm 6.5 4.4 5.6 94 0.4 N 6 7 3 4 1023.7 1023.7 0.2
20/10:00pm 6.9 4.6 5.8 93 0.5 E 7 11 4 6 1023.9 1023.9 0.2
20/09:30pm 7.3 5.3 6.2 93 0.5 ENE 6 7 3 4 1024.1 1024.1 0.2
20/09:00pm 7.7 5.7 6.2 90 0.7 NE 6 9 3 5 1024.1 1024.1 0.2
20/08:30pm 8.2 6.6 6.5 89 0.8 ESE 4 7 2 4 1023.9 1023.9 0.2
20/08:00pm 9.1 7.0 6.5 84 1.2 SSW 7 9 4 5 1024.0 1024.0 0.2
20/07:30pm 10.3 7.4 6.7 78 1.7 SW 11 13 6 7 1023.9 1023.9 0.2
20/07:00pm 10.7 8.3 6.9 77 1.8 S 9 9 5 5 1023.6 1023.6 0.2
20/06:30pm 12.8 9.9 6.5 65 3.0 S 11 13 6 7 1023.5 1023.5 0.2
20/06:00pm 13.6 9.8 5.7 59 3.7 S 15 17 8 9 1023.3 1023.3 0.2
20/05:30pm 14.6 11.4 5.2 53 4.4 SSW 11 17 6 9 1023.3 1023.3 0.2
20/05:00pm 15.4 11.3 4.1 47 5.2 S 15 19 8 10 1023.1 1023.1 0.2
20/04:30pm 15.8 12.5 4.7 47 5.2 SSE 11 17 6 9 1023.0 1023.0 0.2
20/04:00pm 16.0 12.4 5.0 48 5.2 S 13 20 7 11 1023.1 1023.1 0.2
20/03:30pm 16.3 12.7 4.8 46 5.4 S 13 20 7 11 1023.2 1023.2 0.2
20/03:00pm 16.5 12.9 4.8 46 5.5 S 13 20 7 11 1023.5 1023.5 0.2
20/02:30pm 15.4 11.0 5.0 50 4.9 SSE 17 28 9 15 1023.6 1023.6 0.2
20/02:00pm 16.5 11.9 5.4 48 5.3 S 19 30 10 16 1023.7 1023.7 0.2
20/01:30pm 16.4 11.5 5.0 47 5.4 S 20 30 11 16 1023.8 1023.8 0.2
20/01:00pm 16.4 11.5 5.0 47 5.4 S 20 32 11 17 1024.2 1024.2 0.2
20/12:30pm 15.7 9.9 4.5 47 5.2 S 24 35 13 19 1024.6 1024.6 0.2
20/12:00pm 15.5 10.2 4.8 49 5.0 SSW 22 33 12 18 1025.0 1025.0 0.2
20/11:30am 15.2 9.7 4.1 47 5.1 SSW 22 28 12 15 1025.4 1025.4 0.2
20/11:00am 15.2 9.8 4.7 49 4.9 S 22 32 12 17 1025.6 1025.6 0.2
20/10:30am 15.0 9.3 4.9 51 4.7 S 24 33 13 18 1025.8 1025.8 0.0
20/10:00am 14.6 8.4 4.1 49 4.8 S 26 37 14 20 1025.8 1025.8 0.0
20/09:30am 14.1 10.1 6.8 61 3.5 S 17 26 9 14 1026.1 1026.1 0.0
20/09:00am 12.7 8.9 7.5 70 2.5 S 17 19 9 10 1026.0 1026.0 1.6
20/08:30am 12.0 9.0 7.9 76 2.0 S 13 17 7 9 1025.8 1025.8 1.6
20/08:00am 11.5 9.0 8.0 79 1.7 S 11 15 6 8 1025.4 1025.4 1.6
20/07:30am 11.1 7.4 7.8 80 1.6 S 17 22 9 12 1025.1 1025.1 1.6
20/07:00am 11.0 8.0 7.9 81 1.5 SSW 13 15 7 8 1024.6 1024.6 1.6
20/06:30am 10.8 7.9 8.1 83 1.3 SSW 13 15 7 8 1024.4 1024.4 1.6
20/06:00am 10.9 7.5 7.8 81 1.5 SSW 15 19 8 10 1024.0 1024.0 1.6
20/05:30am 10.4 7.5 8.3 87 1.0 S 13 17 7 9 1023.6 1023.6 1.6
20/05:00am 9.4 6.6 8.4 93 0.5 SSW 13 15 7 8 1023.5 1023.5 1.6
20/04:30am 9.3 7.1 8.0 92 0.6 S 9 13 5 7 1023.5 1023.5 1.6
20/04:00am 9.6 6.3 8.1 90 0.7 S 15 19 8 10 1023.3 1023.3 1.6
20/03:30am 9.9 7.0 8.0 88 0.9 SSW 13 17 7 9 1023.1 1023.1 1.6
20/03:00am 10.2 7.0 8.3 88 0.9 SSW 15 20 8 11 1022.8 1022.8 1.6
20/02:30am 10.3 7.5 8.5 89 0.9 SSW 13 15 7 8 1022.7 1022.7 1.6
20/02:00am 10.8 7.3 8.6 86 1.1 SSW 17 20 9 11 1022.4 1022.4 1.6
20/01:30am 11.1 7.2 8.7 85 1.2 SSW 19 24 10 13 1022.2 1022.2 1.6
20/01:00am 11.5 6.7 8.9 84 1.3 SSW 24 30 13 16 1022.1 1022.1 1.6
20/12:30am 11.7 7.3 9.1 84 1.3 SSW 22 28 12 15 1022.1 1022.1 1.6
20/12:00am 12.2 7.0 9.0 81 1.6 SSW 26 35 14 19 1021.8 1021.8 1.6
 
Date/Time
WST
Temp
°C
App
Temp
°C
Dew
Point
°C
Rel
Hum
%
Delta-T
°C
Wind Press
QNH
hPa
Press
MSL
hPa
Rain since
9am
mm
Dir  Spd
km/h
Gust
km/h
Spd
kts
Gust
kts
19/11:30pm 12.2 8.5 9.6 84 1.3 SSW 19 26 10 14 1021.7 1021.7 1.6
19/11:00pm 11.4 8.9 9.8 90 0.8 SSW 13 17 7 9 1021.7 1021.7 1.6
19/10:30pm 11.4 8.9 9.6 89 0.9 SSW 13 17 7 9 1021.7 1021.7 1.6
19/10:00pm 11.8 8.5 9.6 86 1.1 SSW 17 22 9 12 1021.4 1021.4 1.6
19/09:30pm 12.0 8.7 9.6 85 1.2 SSW 17 20 9 11 1021.1 1021.1 1.6
19/09:00pm 12.1 8.7 9.3 83 1.4 SSW 17 26 9 14 1020.7 1020.7 1.6
19/08:30pm 11.9 8.9 9.1 83 1.4 SW 15 19 8 10 1020.2 1020.2 1.6
19/08:00pm 12.3 9.3 9.1 81 1.6 SSW 15 19 8 10 1019.8 1019.8 1.6
19/07:30pm 12.7 8.9 8.9 78 1.9 SW 19 28 10 15 1019.3 1019.3 1.6
19/07:00pm 13.4 10.2 8.4 72 2.5 SSW 15 22 8 12 1018.9 1018.9 1.6
19/06:30pm 13.2 10.1 8.8 74 2.2 SW 15 19 8 10 1018.3 1018.3 1.6
19/06:00pm 13.3 8.5 7.3 67 2.9 SW 22 33 12 18 1017.9 1017.9 1.6
19/05:30pm 14.0 7.9 6.8 62 3.5 SW 28 35 15 19 1017.5 1017.5 1.6
19/05:00pm 14.3 8.9 7.8 65 3.2 SW 26 33 14 18 1017.2 1017.2 1.6
19/04:30pm 13.9 8.4 9.2 73 2.4 WSW 28 39 15 21 1017.0 1017.0 1.6
19/04:00pm 15.2 9.6 7.3 59 3.9 WSW 26 39 14 21 1016.6 1016.6 1.6
19/03:30pm 15.8 10.6 8.7 62 3.6 WSW 26 37 14 20 1016.6 1016.6 1.6
19/03:00pm 15.1 9.2 7.4 60 3.8 WSW 28 37 15 20 1016.5 1016.5 1.6
19/02:30pm 15.2 11.6 8.5 64 3.4 W 17 32 9 17 1016.4 1016.4 1.6
19/02:11pm 12.8 9.0 9.2 79 1.8 WSW 19 32 10 17 1016.5 1016.5 1.6
19/02:00pm 13.8 10.1 7.9 67 2.9 WSW 17 39 9 21 1016.3 1016.3 0.8
19/01:30pm 16.7 12.0 6.0 49 5.2 W 20 35 11 19 1015.6 1015.6 0.4
19/01:00pm 16.0 11.6 7.6 57 4.2 SW 20 30 11 16 1015.9 1015.9 0.4
19/12:30pm 15.9 11.6 7.2 56 4.3 W 19 28 10 15 1016.1 1016.1 0.4
19/12:00pm 16.0 11.4 6.3 52 4.7 WSW 20 28 11 15 1016.3 1016.3 0.4
19/11:30am 15.3 14.0 9.9 70 2.8 WSW 7 13 4 7 1016.5 1016.5 0.4
19/11:00am 15.7 13.9 9.3 65 3.3 NNW 9 13 5 7 1016.5 1016.5 0.4
19/10:30am 15.4 13.5 10.5 72 2.6 N 11 19 6 10 1016.8 1016.8 0.4
19/10:00am 14.2 11.2 10.6 79 1.9 N 17 22 9 12 1017.0 1017.0 0.4
19/09:30am 12.4 10.9 10.5 88 1.0 N 9 13 5 7 1017.0 1017.0 0.2
19/09:00am 12.6 10.2 10.1 85 1.3 NNE 13 17 7 9 1016.9 1016.9 10.0
19/08:30am 11.2 9.5 10.0 92 0.6 NNE 9 13 5 7 1016.7 1016.7 10.0
19/08:00am 9.8 7.9 9.0 95 0.4 NNE 9 13 5 7 1016.5 1016.5 10.0
19/07:30am 10.0 7.0 9.4 96 0.3 NNE 15 20 8 11 1016.3 1016.3 10.0
19/07:00am 10.3 8.6 9.7 96 0.3 NNE 9 11 5 6 1015.8 1015.8 9.6
19/06:30am 10.4 8.7 10.0 97 0.2 NE 9 11 5 6 1015.6 1015.6 9.6
19/06:00am 10.7 8.7 10.1 96 0.3 SSE 11 13 6 7 1015.2 1015.2 9.4
19/05:51am 10.7 8.6 9.9 95 0.4 WSW 11 17 6 9 1015.2 1015.2 9.2
19/05:31am 10.8 8.1 10.2 96 0.3 N 15 24 8 13 1015.3 1015.3 5.6
19/05:30am 10.8 8.1 10.2 96 0.3 N 15 24 8 13 1015.3 1015.3 5.2
19/05:00am 10.8 8.1 10.2 96 0.3 NNE 15 19 8 10 1014.7 1014.7 4.6
19/04:30am 11.1 9.3 10.7 97 0.2 NNE 11 15 6 8 1014.7 1014.7 4.4
19/04:00am 11.2 10.3 10.6 96 0.3 WNW 6 11 3 6 1014.8 1014.8 4.2
19/03:49am 11.2 10.1 10.6 96 0.3 NNE 7 11 4 6 1015.1 1015.1 0.8
19/03:30am 11.1 9.6 10.5 96 0.3 NE 9 11 5 6 1014.7 1014.7 0.2
19/03:00am 11.2 10.1 10.6 96 0.3 NE 7 9 4 5 1014.8 1014.8 0.2
19/02:30am 11.3 10.2 10.5 95 0.4 NW 7 9 4 5 1015.2 1015.2 0.2
19/02:00am 11.0 10.0 10.2 95 0.4 N 6 7 3 4 1015.3 1015.3 0.0
19/01:30am 11.1 9.1 10.1 94 0.5 ENE 11 15 6 8 1015.1 1015.1 0.0
19/01:00am 11.2 9.2 10.2 94 0.5 E 11 15 6 8 1015.1 1015.1 0.0
19/12:30am 11.2 10.0 10.2 94 0.5 NNE 7 7 4 4 1015.7 1015.7 0.0
19/12:00am 11.2 10.0 10.4 95 0.4 NNE 7 9 4 5 1015.7 1015.7 0.0
 
Date/Time
WST
Temp
°C
App
Temp
°C
Dew
Point
°C
Rel
Hum
%
Delta-T
°C
Wind Press
QNH
hPa
Press
MSL
hPa
Rain since
9am
mm
Dir  Spd
km/h
Gust
km/h
Spd
kts
Gust
kts
18/11:30pm 11.1 9.9 10.3 95 0.4 WNW 7 9 4 5 1015.7 1015.7 0.0
18/11:00pm 11.0 10.0 10.2 95 0.4 N 6 7 3 4 1015.9 1015.9 0.0
18/10:30pm 11.1 10.1 10.3 95 0.4 NNW 6 7 3 4 1015.8 1015.8 0.0
18/10:00pm 11.0 9.4 10.2 95 0.4 WNW 9 28 5 15 1016.1 1016.1 0.0
18/09:30pm 11.6 10.7 10.6 94 0.5 SSW 6 7 3 4 1016.1 1016.1 0.0
18/09:00pm 12.3 12.7 11.2 93 0.6 CALM 0 0 0 0 1016.3 1016.3 0.0
18/08:30pm 12.8 11.0 10.7 87 1.1 S 11 13 6 7 1016.0 1016.0 0.0
18/08:00pm 12.8 10.6 10.7 87 1.1 S 13 15 7 8 1016.2 1016.2 0.0

Other Formats:

Comma delimited format used in spreadsheet applications
http://www.bom.gov.au/fwo/IDW60801/IDW60801.94610.axf

JavaScript Object Notation format (JSON) in row-major order
http://www.bom.gov.au/fwo/IDW60801/IDW60801.94610.json